Time;durP1;ratioP1;P1;durP2;ratioP2;P2;SDS_P1;SDS_P2;PMS_P1;PMS_P2;Temp;Humidity;BMP_temperature;BMP_pressure;BME280_temperature;BME280_humidity;BME280_pressure;Samples;Min_cycle;Max_cycle;Signal;HPM_P1;HPM_P2
2024/03/19 00:01:29;;;;;;;13.68;8.48;;;;;;;;;;5039919;28;20404;-67
2024/03/19 00:03:56;;;;;;;13.55;9.23;;;;;;;;;;5039182;28;20041;-62
2024/03/19 00:06:23;;;;;;;13.73;9.25;;;;;;;;;;5040890;28;20052;-58
2024/03/19 00:08:50;;;;;;;16.55;8.80;;;;;;;;;;5038525;28;20045;-56
2024/03/19 00:11:17;;;;;;;14.57;9.50;;;;;;;;;;5050342;28;20048;-58
2024/03/19 00:13:46;;;;;;;13.60;8.68;;;;;;;;;;5050256;28;20060;-57
2024/03/19 00:16:13;;;;;;;13.80;8.70;;;;;;;;;;5045162;28;20053;-59
2024/03/19 00:18:40;;;;;;;15.13;8.63;;;;;;;;;;5043703;28;20095;-58
2024/03/19 00:21:07;;;;;;;17.15;10.55;;;;;;;;;;5037985;28;20053;-57
2024/03/19 00:23:33;;;;;;;15.65;9.68;;;;;;;;;;5048368;28;20471;-57
2024/03/19 00:26:00;;;;;;;14.98;9.77;;;;;;;;;;5043662;28;20055;-56
2024/03/19 00:28:27;;;;;;;15.85;9.40;;;;;;;;;;5043389;28;20083;-58
2024/03/19 00:30:56;;;;;;;16.88;10.10;;;;;;;;;;5037781;28;20492;-58
2024/03/19 00:33:23;;;;;;;15.77;9.63;;;;;;;;;;5037634;28;20061;-57
2024/03/19 00:35:50;;;;;;;16.50;9.38;;;;;;;;;;5044433;28;20525;-60
2024/03/19 00:38:17;;;;;;;14.77;9.80;;;;;;;;;;5050041;28;20041;-65
2024/03/19 00:44:12;;;;;;;17.25;9.63;;;;;;;;;;5035339;28;20108;-64
2024/03/19 00:47:07;;;;;;;14.48;8.75;;;;;;;;;;5051181;28;20060;-61
2024/03/19 00:50:18;;;;;;;17.52;9.77;;;;;;;;;;5051038;28;20436;-62
2024/03/19 00:53:01;;;;;;;;;;;;;;;;;;5052825;28;20523;-60
2024/03/19 00:55:44;;;;;;;15.73;8.70;;;;;;;;;;5052323;28;20031;-61
2024/03/19 00:58:20;;;;;;;16.13;9.23;;;;;;;;;;5042660;28;20056;-61
2024/03/19 01:00:57;;;;;;;16.02;9.23;;;;;;;;;;5051392;28;20049;-60
2024/03/19 01:03:26;;;;;;;15.75;9.43;;;;;;;;;;5045577;28;20124;-61
2024/03/19 01:05:53;;;;;;;18.73;10.35;;;;;;;;;;5029574;28;20651;-60
2024/03/19 01:08:20;;;;;;;19.98;10.32;;;;;;;;;;5029468;28;20053;-58
2024/03/19 01:10:47;;;;;;;19.88;10.50;;;;;;;;;;5041790;28;20048;-60
2024/03/19 01:13:14;;;;;;;18.35;9.82;;;;;;;;;;5051315;28;20059;-61
2024/03/19 01:15:42;;;;;;;15.93;8.82;;;;;;;;;;5051026;28;20044;-61
2024/03/19 01:18:09;;;;;;;16.90;9.90;;;;;;;;;;5051259;28;20508;-61
2024/03/19 01:20:37;;;;;;;16.58;8.90;;;;;;;;;;5050981;28;20049;-61
2024/03/19 01:23:04;;;;;;;17.55;10.40;;;;;;;;;;5051000;28;20059;-61
2024/03/19 01:25:31;;;;;;;15.88;8.85;;;;;;;;;;5032729;28;20103;-61
2024/03/19 01:27:58;;;;;;;16.70;9.45;;;;;;;;;;5031153;28;20046;-60
2024/03/19 01:30:26;;;;;;;18.83;10.35;;;;;;;;;;5035391;28;20479;-58
2024/03/19 01:32:53;;;;;;;18.45;10.15;;;;;;;;;;5035509;28;20559;-61
2024/03/19 01:35:20;;;;;;;17.73;10.00;;;;;;;;;;5035055;28;20141;-60
2024/03/19 01:37:49;;;;;;;18.55;10.18;;;;;;;;;;5035002;28;20053;-60
2024/03/19 01:40:16;;;;;;;15.82;9.50;;;;;;;;;;5035412;28;20511;-61
2024/03/19 01:42:43;;;;;;;19.50;9.52;;;;;;;;;;5035164;28;20238;-61
2024/03/19 01:45:12;;;;;;;15.45;8.93;;;;;;;;;;5035261;28;20069;-61
2024/03/19 01:47:39;;;;;;;17.77;10.25;;;;;;;;;;5034966;28;20402;-60
2024/03/19 01:50:09;;;;;;;16.92;9.50;;;;;;;;;;5034913;28;20060;-61
2024/03/19 01:52:40;;;;;;;20.67;10.70;;;;;;;;;;5034842;28;20046;-61
2024/03/19 01:55:08;;;;;;;18.20;9.70;;;;;;;;;;5035243;28;20045;-60
2024/03/19 01:57:36;;;;;;;19.70;10.60;;;;;;;;;;5034915;28;20053;-59
2024/03/19 02:00:04;;;;;;;16.83;10.40;;;;;;;;;;5034596;28;20050;-61
2024/03/19 02:02:34;;;;;;;19.25;9.82;;;;;;;;;;5034917;28;20458;-61
2024/03/19 02:05:02;;;;;;;21.63;12.00;;;;;;;;;;5034970;28;20567;-61
2024/03/19 02:07:29;;;;;;;19.73;10.85;;;;;;;;;;5035083;28;20287;-59
2024/03/19 02:09:56;;;;;;;20.95;10.48;;;;;;;;;;5034785;28;20053;-61
2024/03/19 02:12:26;;;;;;;20.80;10.93;;;;;;;;;;5034504;28;20054;-61
2024/03/19 02:14:53;;;;;;;18.58;9.65;;;;;;;;;;5034469;28;20052;-61
2024/03/19 02:17:21;;;;;;;22.77;10.35;;;;;;;;;;5034822;28;20489;-61
2024/03/19 02:19:48;;;;;;;20.67;11.05;;;;;;;;;;5034127;28;20081;-60
2024/03/19 02:22:16;;;;;;;19.25;10.43;;;;;;;;;;5033785;28;20468;-59
2024/03/19 02:24:45;;;;;;;18.90;10.55;;;;;;;;;;5033445;28;20284;-61
2024/03/19 02:27:12;;;;;;;18.90;10.57;;;;;;;;;;5032986;28;20050;-60
2024/03/19 02:29:43;;;;;;;18.42;9.70;;;;;;;;;;5032920;28;20045;-61
2024/03/19 02:32:10;;;;;;;20.63;11.10;;;;;;;;;;5033301;28;20061;-61
2024/03/19 02:34:37;;;;;;;19.60;10.73;;;;;;;;;;5033617;28;20470;-57
2024/03/19 02:37:04;;;;;;;19.45;10.48;;;;;;;;;;5032984;28;20045;-57
2024/03/19 02:39:31;;;;;;;23.58;11.63;;;;;;;;;;5046796;28;20049;-58
2024/03/19 02:42:00;;;;;;;18.58;10.63;;;;;;;;;;5052429;28;20061;-58
2024/03/19 02:44:27;;;;;;;21.58;12.07;;;;;;;;;;5048736;28;20045;-58
2024/03/19 02:46:54;;;;;;;22.48;11.48;;;;;;;;;;5048995;28;20464;-57
2024/03/19 02:49:21;;;;;;;20.23;11.07;;;;;;;;;;5050620;28;20060;-58
2024/03/19 02:51:48;;;;;;;18.38;10.02;;;;;;;;;;5049713;28;20045;-57
2024/03/19 02:54:15;;;;;;;22.73;11.52;;;;;;;;;;5052258;28;20061;-56
2024/03/19 02:56:42;;;;;;;20.63;11.50;;;;;;;;;;5042771;28;20465;-57
2024/03/19 02:59:10;;;;;;;19.35;10.43;;;;;;;;;;5048070;28;20037;-59
2024/03/19 03:01:37;;;;;;;18.92;10.43;;;;;;;;;;5043916;28;20492;-57
2024/03/19 03:04:06;;;;;;;20.23;11.57;;;;;;;;;;5051979;28;20053;-57
2024/03/19 03:06:33;;;;;;;20.67;11.43;;;;;;;;;;5052068;28;20413;-58
2024/03/19 03:09:00;;;;;;;23.42;10.80;;;;;;;;;;5049693;28;20064;-58
2024/03/19 03:11:27;;;;;;;22.80;11.70;;;;;;;;;;5051902;28;20045;-54
2024/03/19 03:13:54;;;;;;;21.52;10.75;;;;;;;;;;5047802;28;20303;-53
2024/03/19 03:16:23;;;;;;;21.88;11.27;;;;;;;;;;5041234;28;20460;-58
2024/03/19 03:18:50;;;;;;;20.40;10.65;;;;;;;;;;5050771;28;20044;-56
2024/03/19 03:21:17;;;;;;;23.77;12.13;;;;;;;;;;5006912;28;1279504;-56
2024/03/19 03:23:45;;;;;;;19.77;11.85;;;;;;;;;;5052702;28;20041;-53
2024/03/19 03:26:12;;;;;;;22.52;11.45;;;;;;;;;;5046894;28;20057;-56
2024/03/19 03:28:40;;;;;;;21.67;11.57;;;;;;;;;;5040221;28;20127;-57
2024/03/19 03:31:07;;;;;;;22.40;11.38;;;;;;;;;;5045509;28;20045;-59
2024/03/19 03:33:36;;;;;;;22.40;10.93;;;;;;;;;;5047274;28;20051;-58
2024/03/19 03:36:03;;;;;;;21.85;11.40;;;;;;;;;;5052228;28;20140;-57
2024/03/19 03:38:30;;;;;;;24.40;11.60;;;;;;;;;;5052500;28;20484;-58
2024/03/19 03:40:57;;;;;;;19.90;10.75;;;;;;;;;;5052314;28;20053;-59
2024/03/19 03:43:24;;;;;;;23.45;11.30;;;;;;;;;;5048457;28;20045;-58
2024/03/19 03:45:51;;;;;;;22.20;11.00;;;;;;;;;;5052240;28;20053;-58
2024/03/19 03:48:18;;;;;;;23.88;11.73;;;;;;;;;;5051676;28;20520;-58
2024/03/19 03:50:46;;;;;;;23.77;11.70;;;;;;;;;;5048717;28;20147;-58
2024/03/19 03:53:13;;;;;;;19.95;10.88;;;;;;;;;;5048263;28;20075;-59
2024/03/19 03:55:40;;;;;;;21.65;11.45;;;;;;;;;;5052093;28;20048;-55
2024/03/19 03:58:07;;;;;;;22.33;12.13;;;;;;;;;;5051942;28;20056;-54
2024/03/19 04:00:34;;;;;;;23.40;12.13;;;;;;;;;;5041119;28;20053;-57
2024/03/19 04:03:02;;;;;;;25.27;11.25;;;;;;;;;;5051939;28;20102;-54
2024/03/19 04:05:29;;;;;;;23.98;11.77;;;;;;;;;;5052046;28;20049;-58
2024/03/19 04:07:57;;;;;;;26.98;12.00;;;;;;;;;;5051472;28;20051;-58
2024/03/19 04:10:24;;;;;;;26.55;12.98;;;;;;;;;;5051799;28;20049;-56
2024/03/19 04:12:51;;;;;;;21.75;12.48;;;;;;;;;;5052143;28;20485;-57
2024/03/19 04:15:18;;;;;;;21.50;11.38;;;;;;;;;;5051796;28;20412;-55
2024/03/19 04:17:47;;;;;;;22.67;11.13;;;;;;;;;;5051813;28;20546;-59
2024/03/19 04:20:15;;;;;;;22.67;11.82;;;;;;;;;;5051611;28;20048;-59
2024/03/19 04:22:43;;;;;;;24.80;12.60;;;;;;;;;;5051736;28;20424;-59
2024/03/19 04:25:11;;;;;;;21.17;10.13;;;;;;;;;;5051798;28;20492;-58
2024/03/19 04:27:38;;;;;;;25.58;11.75;;;;;;;;;;5051217;28;20504;-59
2024/03/19 04:30:07;;;;;;;21.40;11.43;;;;;;;;;;5051354;28;20424;-58
2024/03/19 04:32:34;;;;;;;20.17;10.38;;;;;;;;;;5049553;28;20517;-58
2024/03/19 04:35:01;;;;;;;22.70;11.27;;;;;;;;;;5051310;28;20041;-58
2024/03/19 04:37:28;;;;;;;23.38;12.25;;;;;;;;;;5051084;28;20049;-59
2024/03/19 04:39:55;;;;;;;23.15;11.32;;;;;;;;;;5051058;28;20102;-57
2024/03/19 04:42:24;;;;;;;23.25;10.68;;;;;;;;;;5046680;28;20045;-58
2024/03/19 04:44:51;;;;;;;21.88;10.70;;;;;;;;;;5051019;28;20041;-58
2024/03/19 04:47:19;;;;;;;26.42;11.95;;;;;;;;;;5050887;28;20055;-57
2024/03/19 04:49:46;;;;;;;23.40;11.75;;;;;;;;;;5051225;28;20057;-54
2024/03/19 04:52:13;;;;;;;23.30;11.60;;;;;;;;;;5048108;28;20132;-60
2024/03/19 04:54:40;;;;;;;24.27;12.50;;;;;;;;;;5047327;28;20114;-57
2024/03/19 04:57:07;;;;;;;22.63;10.88;;;;;;;;;;5051040;28;20079;-59
2024/03/19 04:59:36;;;;;;;25.42;11.32;;;;;;;;;;5051040;28;20056;-54
2024/03/19 05:02:03;;;;;;;20.20;10.73;;;;;;;;;;5051182;28;20072;-56
2024/03/19 05:04:30;;;;;;;22.42;12.13;;;;;;;;;;5051437;28;20424;-58
2024/03/19 05:06:57;;;;;;;23.70;10.80;;;;;;;;;;5051001;28;20053;-55
2024/03/19 05:09:25;;;;;;;23.92;11.63;;;;;;;;;;5051070;28;20524;-56
2024/03/19 05:11:52;;;;;;;22.30;11.50;;;;;;;;;;5050798;28;20056;-55
2024/03/19 05:14:19;;;;;;;24.17;11.90;;;;;;;;;;5048434;28;20075;-57
2024/03/19 05:16:47;;;;;;;23.48;11.88;;;;;;;;;;5044355;28;20055;-55
2024/03/19 05:19:14;;;;;;;23.42;12.05;;;;;;;;;;5051026;28;20121;-56
2024/03/19 05:21:41;;;;;;;22.52;11.43;;;;;;;;;;5050691;28;20051;-55
2024/03/19 05:24:08;;;;;;;22.20;10.68;;;;;;;;;;5047011;28;20049;-54
2024/03/19 05:26:35;;;;;;;24.10;11.70;;;;;;;;;;5042829;28;20045;-55
2024/03/19 05:29:02;;;;;;;22.95;10.50;;;;;;;;;;5050612;28;20045;-54
2024/03/19 05:31:29;;;;;;;22.05;11.57;;;;;;;;;;5050873;28;20126;-55
2024/03/19 05:33:58;;;;;;;25.15;11.95;;;;;;;;;;5051060;28;20053;-55
2024/03/19 05:36:26;;;;;;;23.10;11.40;;;;;;;;;;5050987;28;20401;-59
2024/03/19 05:38:53;;;;;;;21.67;12.13;;;;;;;;;;5050705;28;20056;-55
2024/03/19 05:41:20;;;;;;;23.23;11.18;;;;;;;;;;5050986;28;20045;-56
2024/03/19 05:43:49;;;;;;;25.58;12.13;;;;;;;;;;5050990;28;20053;-54
2024/03/19 05:46:16;;;;;;;24.77;12.25;;;;;;;;;;5045042;28;20124;-55
2024/03/19 05:48:43;;;;;;;24.13;11.55;;;;;;;;;;5036034;28;20068;-54
2024/03/19 05:51:12;;;;;;;22.75;11.23;;;;;;;;;;5047584;28;20041;-53
2024/03/19 05:53:39;;;;;;;22.10;10.05;;;;;;;;;;5045002;28;20045;-56
2024/03/19 05:56:08;;;;;;;21.15;10.68;;;;;;;;;;5045410;28;20046;-56
2024/03/19 05:58:35;;;;;;;22.48;11.13;;;;;;;;;;5050353;28;20515;-55
2024/03/19 06:01:02;;;;;;;24.30;12.25;;;;;;;;;;5050275;28;20059;-55
2024/03/19 06:03:31;;;;;;;24.50;11.60;;;;;;;;;;5051019;28;20049;-55
2024/03/19 06:05:59;;;;;;;23.95;11.57;;;;;;;;;;5050896;28;20053;-52
2024/03/19 06:08:28;;;;;;;24.20;11.50;;;;;;;;;;5050290;28;20492;-57
2024/03/19 06:10:56;;;;;;;23.60;11.68;;;;;;;;;;5049874;28;20417;-56
2024/03/19 06:13:23;;;;;;;20.83;10.35;;;;;;;;;;5048956;28;20502;-52
2024/03/19 06:15:50;;;;;;;24.02;11.80;;;;;;;;;;5053594;28;20099;-56
2024/03/19 06:18:17;;;;;;;22.60;11.38;;;;;;;;;;5053840;28;20346;-57
2024/03/19 06:20:46;;;;;;;23.48;12.73;;;;;;;;;;5054114;28;20049;-54
2024/03/19 06:23:13;;;;;;;25.27;11.85;;;;;;;;;;5053877;28;20053;-52
2024/03/19 06:25:43;;;;;;;23.70;11.80;;;;;;;;;;5053828;28;20060;-56
2024/03/19 06:28:10;;;;;;;24.75;11.90;;;;;;;;;;5054251;28;20484;-56
2024/03/19 06:30:37;;;;;;;24.05;10.52;;;;;;;;;;5046362;28;20052;-55
2024/03/19 06:33:04;;;;;;;20.40;10.23;;;;;;;;;;5054244;28;20063;-57
2024/03/19 06:35:33;;;;;;;21.17;10.82;;;;;;;;;;5053969;28;20463;-55
2024/03/19 06:38:02;;;;;;;22.98;10.98;;;;;;;;;;5053708;28;20055;-60
2024/03/19 06:40:29;;;;;;;21.17;10.88;;;;;;;;;;5054212;28;20049;-54
2024/03/19 06:42:58;;;;;;;20.88;10.63;;;;;;;;;;5053971;28;20552;-52
2024/03/19 06:45:26;;;;;;;22.33;11.68;;;;;;;;;;5053566;28;20049;-57
2024/03/19 06:47:53;;;;;;;19.40;10.57;;;;;;;;;;5053551;28;20091;-59
2024/03/19 06:50:20;;;;;;;21.17;10.68;;;;;;;;;;5053622;28;20063;-54
2024/03/19 06:52:47;;;;;;;22.45;11.60;;;;;;;;;;5051015;28;20515;-59
2024/03/19 06:55:15;;;;;;;21.25;10.98;;;;;;;;;;5053321;28;20041;-54
2024/03/19 06:57:42;;;;;;;22.77;11.93;;;;;;;;;;5053459;28;20045;-54
2024/03/19 07:00:14;;;;;;;20.98;9.75;;;;;;;;;;5053705;28;20476;-57
2024/03/19 07:02:41;;;;;;;20.27;10.85;;;;;;;;;;5053547;28;20463;-55
2024/03/19 07:05:09;;;;;;;22.58;10.70;;;;;;;;;;5053630;28;20060;-58
2024/03/19 07:07:36;;;;;;;22.35;10.85;;;;;;;;;;5053128;28;20111;-58
2024/03/19 07:10:03;;;;;;;20.88;10.40;;;;;;;;;;5053469;28;20044;-57
2024/03/19 07:12:30;;;;;;;21.75;11.48;;;;;;;;;;5053517;28;21557;-58
2024/03/19 07:14:59;;;;;;;18.90;10.07;;;;;;;;;;5053321;28;20053;-59
2024/03/19 07:17:27;;;;;;;22.33;10.70;;;;;;;;;;5044031;28;20056;-59
2024/03/19 07:19:54;;;;;;;20.73;10.65;;;;;;;;;;5046316;28;20053;-59
2024/03/19 07:22:22;;;;;;;20.95;11.30;;;;;;;;;;5053044;28;20102;-59
2024/03/19 07:24:49;;;;;;;20.25;9.95;;;;;;;;;;5052913;28;20045;-60
2024/03/19 07:27:16;;;;;;;21.92;12.52;;;;;;;;;;5051554;28;20049;-59
2024/03/19 07:29:43;;;;;;;21.55;12.55;;;;;;;;;;5052873;28;20397;-59
2024/03/19 07:32:10;;;;;;;28.63;12.75;;;;;;;;;;5047445;28;20063;-58
2024/03/19 07:34:40;;;;;;;20.17;10.68;;;;;;;;;;5046173;28;20136;-59
2024/03/19 07:37:07;;;;;;;19.38;10.15;;;;;;;;;;5053057;28;20059;-59
2024/03/19 07:39:35;;;;;;;21.45;11.13;;;;;;;;;;5053469;28;20459;-59
2024/03/19 07:42:02;;;;;;;24.48;11.88;;;;;;;;;;5052793;28;20554;-56
2024/03/19 07:44:29;;;;;;;21.88;11.27;;;;;;;;;;5051453;28;20084;-54
2024/03/19 07:46:56;;;;;;;20.17;11.02;;;;;;;;;;5052924;28;20085;-58
2024/03/19 07:49:23;;;;;;;21.85;11.43;;;;;;;;;;5052611;28;20500;-57
2024/03/19 07:51:52;;;;;;;18.95;10.38;;;;;;;;;;5052546;28;20048;-58
2024/03/19 07:54:22;;;;;;;24.02;12.85;;;;;;;;;;5052676;28;20056;-58
2024/03/19 07:56:50;;;;;;;;;;;;;;;;;;5036906;28;20049;-55
2024/03/19 07:59:17;;;;;;;21.48;11.57;;;;;;;;;;5041469;28;20364;-58
2024/03/19 08:01:44;;;;;;;24.38;12.80;;;;;;;;;;5042926;28;20049;-57
2024/03/19 08:04:11;;;;;;;22.90;10.85;;;;;;;;;;5043958;28;20049;-57
2024/03/19 08:06:37;;;;;;;21.63;11.55;;;;;;;;;;5045392;28;20412;-56
2024/03/19 08:09:08;;;;;;;24.30;12.50;;;;;;;;;;5048756;28;20420;-58
2024/03/19 08:11:35;;;;;;;20.02;9.98;;;;;;;;;;5047604;28;20404;-57
2024/03/19 08:14:02;;;;;;;22.83;11.10;;;;;;;;;;5043710;28;20045;-57
2024/03/19 08:16:29;;;;;;;22.15;11.13;;;;;;;;;;5044075;28;20045;-58
2024/03/19 08:18:59;;;;;;;21.35;11.57;;;;;;;;;;5040309;28;20080;-58
2024/03/19 08:21:26;;;;;;;22.05;11.90;;;;;;;;;;5046186;28;20416;-56
2024/03/19 08:23:53;;;;;;;23.98;12.75;;;;;;;;;;5053355;28;20049;-56
2024/03/19 08:26:22;;;;;;;20.77;11.70;;;;;;;;;;5047276;28;20054;-58
2024/03/19 08:28:48;;;;;;;21.02;11.07;;;;;;;;;;5044501;28;20056;-59
2024/03/19 08:31:15;;;;;;;22.20;11.27;;;;;;;;;;5048054;28;20047;-57
2024/03/19 08:33:42;;;;;;;21.20;11.38;;;;;;;;;;5041655;28;20491;-58
2024/03/19 08:36:10;;;;;;;25.70;13.73;;;;;;;;;;5044783;28;20057;-57
2024/03/19 08:38:38;;;;;;;23.75;12.68;;;;;;;;;;5049522;28;20091;-57
2024/03/19 08:41:05;;;;;;;26.45;13.13;;;;;;;;;;5033947;28;20107;-59
2024/03/19 08:43:33;;;;;;;20.55;11.20;;;;;;;;;;5036429;28;20437;-57
2024/03/19 08:46:00;;;;;;;26.60;12.60;;;;;;;;;;5041171;28;20053;-57
2024/03/19 08:48:27;;;;;;;20.55;12.00;;;;;;;;;;5049033;28;20552;-54
2024/03/19 08:50:54;;;;;;;23.42;12.40;;;;;;;;;;5049768;28;20268;-59
2024/03/19 08:53:22;;;;;;;20.40;11.05;;;;;;;;;;5050249;28;20057;-55
2024/03/19 08:55:56;;;;;;;21.15;11.40;;;;;;;;;;5050354;28;20075;-56
2024/03/19 08:58:23;;;;;;;22.23;12.73;;;;;;;;;;5050540;28;20481;-57
2024/03/19 09:00:51;;;;;;;20.92;12.05;;;;;;;;;;5049883;28;20056;-66
2024/03/19 09:03:19;;;;;;;21.30;11.52;;;;;;;;;;5050622;28;20055;-61
2024/03/19 09:05:46;;;;;;;23.27;12.90;;;;;;;;;;5048199;28;20401;-57
2024/03/19 09:08:14;;;;;;;21.42;11.27;;;;;;;;;;5040154;28;20439;-58
2024/03/19 09:10:41;;;;;;;20.00;11.32;;;;;;;;;;5049768;28;20048;-58
2024/03/19 09:13:12;;;;;;;24.52;12.15;;;;;;;;;;5052178;28;20049;-58
2024/03/19 09:15:44;;;;;;;21.33;12.20;;;;;;;;;;5042612;28;20049;-56
2024/03/19 09:18:15;;;;;;;23.38;11.88;;;;;;;;;;5045028;28;20124;-54
2024/03/19 09:20:47;;;;;;;22.13;12.15;;;;;;;;;;5038835;28;20037;-58
2024/03/19 09:23:17;;;;;;;20.45;10.98;;;;;;;;;;5039482;28;20416;-58
2024/03/19 09:25:44;;;;;;;23.15;12.15;;;;;;;;;;5043258;28;20071;-55
2024/03/19 09:28:11;;;;;;;21.92;12.40;;;;;;;;;;5041799;28;20409;-57
2024/03/19 09:30:39;;;;;;;21.55;12.18;;;;;;;;;;5044998;28;20123;-58
2024/03/19 09:33:06;;;;;;;20.17;11.50;;;;;;;;;;5040446;28;20052;-56
2024/03/19 09:35:40;;;;;;;21.50;12.13;;;;;;;;;;5049300;28;20045;-56
2024/03/19 09:38:08;;;;;;;22.08;12.73;;;;;;;;;;5050000;28;20053;-54
2024/03/19 09:40:36;;;;;;;19.05;11.80;;;;;;;;;;5048412;28;20044;-59
2024/03/19 09:43:07;;;;;;;21.15;11.77;;;;;;;;;;5049048;28;20056;-58
2024/03/19 09:45:35;;;;;;;22.50;12.88;;;;;;;;;;5042211;28;20057;-58
2024/03/19 09:48:02;;;;;;;21.50;13.02;;;;;;;;;;5047432;28;20056;-58
2024/03/19 09:50:31;;;;;;;23.27;14.00;;;;;;;;;;5042615;28;20499;-63
2024/03/19 09:53:00;;;;;;;19.75;12.35;;;;;;;;;;5048092;28;20493;-59
2024/03/19 09:55:29;;;;;;;20.77;11.25;;;;;;;;;;5040256;28;20049;-61
2024/03/19 09:57:58;;;;;;;19.00;11.60;;;;;;;;;;5034183;28;20121;-62
2024/03/19 10:00:26;;;;;;;19.55;11.57;;;;;;;;;;5039786;28;20053;-61
2024/03/19 10:02:54;;;;;;;19.63;11.40;;;;;;;;;;5041800;28;20049;-61
2024/03/19 10:05:22;;;;;;;19.30;10.45;;;;;;;;;;5037504;28;20144;-55
2024/03/19 10:07:51;;;;;;;18.83;11.43;;;;;;;;;;5045621;28;20049;-63
2024/03/19 10:10:20;;;;;;;16.65;10.88;;;;;;;;;;5038290;28;20063;-59
2024/03/19 10:12:47;;;;;;;19.60;12.63;;;;;;;;;;5049502;28;20066;-58
2024/03/19 10:15:19;;;;;;;20.23;13.13;;;;;;;;;;5050618;28;20041;-58
2024/03/19 10:17:47;;;;;;;20.98;12.70;;;;;;;;;;5047637;28;20055;-58
2024/03/19 10:20:14;;;;;;;20.08;11.90;;;;;;;;;;5048494;28;20045;-56
2024/03/19 10:22:41;;;;;;;27.25;15.00;;;;;;;;;;5044215;28;20056;-58
2024/03/19 10:25:08;;;;;;;21.25;12.98;;;;;;;;;;5046916;28;20098;-56
2024/03/19 10:27:37;;;;;;;17.85;10.77;;;;;;;;;;5052437;28;20052;-55
2024/03/19 10:30:05;;;;;;;17.70;11.02;;;;;;;;;;5052746;28;20053;-57
2024/03/19 10:32:35;;;;;;;15.25;9.43;;;;;;;;;;5052292;28;20162;-57
2024/03/19 10:35:02;;;;;;;19.42;11.43;;;;;;;;;;5052454;28;20140;-58
2024/03/19 10:37:29;;;;;;;18.60;11.05;;;;;;;;;;5051017;28;20056;-58
2024/03/19 10:39:56;;;;;;;18.75;11.32;;;;;;;;;;5052092;28;20144;-58
2024/03/19 10:42:24;;;;;;;17.88;10.77;;;;;;;;;;5051486;28;20056;-57
2024/03/19 10:44:53;;;;;;;14.57;9.77;;;;;;;;;;5051675;28;20464;-56
2024/03/19 10:47:21;;;;;;;15.85;9.63;;;;;;;;;;5042087;28;20053;-56
2024/03/19 10:49:49;;;;;;;16.73;10.77;;;;;;;;;;5051741;28;20532;-58
2024/03/19 10:52:22;;;;;;;15.30;9.63;;;;;;;;;;5052008;28;20056;-58
2024/03/19 10:54:51;;;;;;;16.75;9.93;;;;;;;;;;5044962;28;20048;-55
2024/03/19 10:57:20;;;;;;;14.13;9.65;;;;;;;;;;5050952;28;20044;-56
2024/03/19 10:59:47;;;;;;;14.70;9.18;;;;;;;;;;5051600;28;20052;-58
2024/03/19 11:02:18;;;;;;;14.27;8.18;;;;;;;;;;5051000;28;20099;-54
2024/03/19 11:04:54;;;;;;;15.55;9.50;;;;;;;;;;5051476;28;20080;-54
2024/03/19 11:07:25;;;;;;;16.77;9.50;;;;;;;;;;5051524;28;20103;-58
2024/03/19 11:09:53;;;;;;;16.63;10.52;;;;;;;;;;5051081;28;20071;-56
2024/03/19 11:12:23;;;;;;;17.33;9.00;;;;;;;;;;5051290;28;20557;-59
2024/03/19 11:14:58;;;;;;;13.23;8.70;;;;;;;;;;5050344;28;20053;-58
2024/03/19 11:17:28;;;;;;;14.40;8.90;;;;;;;;;;5051027;28;20049;-59
2024/03/19 11:19:56;;;;;;;15.73;9.57;;;;;;;;;;5051325;28;20200;-57
2024/03/19 11:22:24;;;;;;;15.30;9.10;;;;;;;;;;5051404;28;20530;-54
2024/03/19 11:24:52;;;;;;;14.23;8.45;;;;;;;;;;5051343;28;20048;-55
2024/03/19 11:27:19;;;;;;;14.20;8.73;;;;;;;;;;5047381;28;20041;-53
2024/03/19 11:29:47;;;;;;;13.95;8.65;;;;;;;;;;5044402;28;20505;-53
2024/03/19 11:32:23;;;;;;;15.07;9.55;;;;;;;;;;5042073;28;20053;-57
2024/03/19 11:34:52;;;;;;;12.68;7.85;;;;;;;;;;5044679;28;20401;-54
2024/03/19 11:37:20;;;;;;;12.07;7.18;;;;;;;;;;5050678;28;20041;-55
2024/03/19 11:39:49;;;;;;;12.45;7.70;;;;;;;;;;5050985;28;20089;-56
2024/03/19 11:42:16;;;;;;;12.57;7.60;;;;;;;;;;5050546;28;20049;-56
2024/03/19 11:44:46;;;;;;;9.95;6.07;;;;;;;;;;5050671;28;20052;-57
2024/03/19 11:47:14;;;;;;;10.48;6.47;;;;;;;;;;5038668;28;20333;-54
2024/03/19 11:49:41;;;;;;;12.00;6.50;;;;;;;;;;5041868;28;20064;-53
2024/03/19 11:52:11;;;;;;;15.90;7.60;;;;;;;;;;5046619;28;20459;-60
2024/03/19 11:54:41;;;;;;;12.18;7.22;;;;;;;;;;5050340;28;20107;-59
2024/03/19 11:57:10;;;;;;;;;;;;;;;;;;5046068;28;20056;-58
2024/03/19 11:59:37;;;;;;;9.18;5.82;;;;;;;;;;5038678;28;19931;-58
2024/03/19 12:02:05;;;;;;;9.00;5.07;;;;;;;;;;5038898;28;20040;-59
2024/03/19 12:04:32;;;;;;;10.15;5.75;;;;;;;;;;5050640;28;20079;-55
2024/03/19 12:06:59;;;;;;;9.82;6.40;;;;;;;;;;5050589;28;20076;-59
2024/03/19 12:09:28;;;;;;;10.15;6.05;;;;;;;;;;5051034;28;20424;-59
2024/03/19 12:11:56;;;;;;;10.73;5.60;;;;;;;;;;5049785;28;20069;-59
2024/03/19 12:14:24;;;;;;;10.73;6.18;;;;;;;;;;5048898;28;20051;-56
2024/03/19 12:16:51;;;;;;;9.20;6.03;;;;;;;;;;5049900;28;20057;-59
2024/03/19 12:19:20;;;;;;;8.98;4.97;;;;;;;;;;5049748;28;20086;-54
2024/03/19 12:21:49;;;;;;;9.82;5.55;;;;;;;;;;5043516;28;20041;-57
2024/03/19 12:24:17;;;;;;;10.52;5.47;;;;;;;;;;5040100;28;20047;-57
2024/03/19 12:26:47;;;;;;;7.13;4.32;;;;;;;;;;5036175;28;20164;-57
2024/03/19 12:29:16;;;;;;;8.53;4.50;;;;;;;;;;5044272;28;20051;-56
2024/03/19 12:31:49;;;;;;;7.68;4.05;;;;;;;;;;5048759;28;20071;-54
2024/03/19 12:34:27;;;;;;;7.90;4.53;;;;;;;;;;5048479;28;20053;-56
2024/03/19 12:36:54;;;;;;;7.43;4.32;;;;;;;;;;5044538;28;20130;-58
2024/03/19 12:39:26;;;;;;;7.80;4.60;;;;;;;;;;5041402;28;20052;-53
2024/03/19 12:41:55;;;;;;;7.60;4.18;;;;;;;;;;5043610;28;20102;-53
2024/03/19 12:44:23;;;;;;;7.10;4.40;;;;;;;;;;5049828;28;20049;-53
2024/03/19 12:46:50;;;;;;;6.32;4.13;;;;;;;;;;5049481;28;20106;-57
2024/03/19 12:49:20;;;;;;;7.25;3.75;;;;;;;;;;5046593;28;20141;-55
2024/03/19 12:51:47;;;;;;;7.57;3.25;;;;;;;;;;5049525;28;20132;-57
2024/03/19 12:54:15;;;;;;;6.53;3.72;;;;;;;;;;5049450;28;20048;-55
2024/03/19 12:56:42;;;;;;;7.15;4.22;;;;;;;;;;5049814;28;20045;-55
2024/03/19 12:59:10;;;;;;;6.82;4.00;;;;;;;;;;5048248;28;20045;-53
2024/03/19 13:01:37;;;;;;;7.85;4.07;;;;;;;;;;5048947;28;20048;-53
2024/03/19 13:04:04;;;;;;;6.97;4.50;;;;;;;;;;5038366;28;20517;-52
2024/03/19 13:06:31;;;;;;;7.45;3.75;;;;;;;;;;5033265;28;20433;-53
2024/03/19 13:08:58;;;;;;;8.23;4.20;;;;;;;;;;5044381;28;20045;-50
2024/03/19 13:11:26;;;;;;;7.65;4.70;;;;;;;;;;5045518;28;20469;-57
2024/03/19 13:13:53;;;;;;;7.63;4.28;;;;;;;;;;5041730;28;20135;-52
2024/03/19 13:16:21;;;;;;;6.10;3.83;;;;;;;;;;5039776;28;20048;-57
2024/03/19 13:18:48;;;;;;;8.70;3.95;;;;;;;;;;5048976;28;20420;-57
2024/03/19 13:21:15;;;;;;;6.78;4.22;;;;;;;;;;5049538;28;20055;-54
2024/03/19 13:23:42;;;;;;;6.78;4.30;;;;;;;;;;5048937;28;20053;-54
2024/03/19 13:26:09;;;;;;;5.57;3.13;;;;;;;;;;5053231;28;20051;-51
2024/03/19 13:28:36;;;;;;;7.13;4.68;;;;;;;;;;5051773;28;20520;-56
2024/03/19 13:31:03;;;;;;;6.80;4.15;;;;;;;;;;5053723;28;20045;-53
2024/03/19 13:33:32;;;;;;;6.13;3.45;;;;;;;;;;5051615;28;20653;-52
2024/03/19 13:35:59;;;;;;;7.05;4.70;;;;;;;;;;5050187;28;20051;-56
2024/03/19 13:38:26;;;;;;;6.45;3.38;;;;;;;;;;5039021;28;20143;-60
2024/03/19 13:40:52;;;;;;;5.85;2.90;;;;;;;;;;5039992;28;20245;-53
2024/03/19 13:43:19;;;;;;;4.45;2.38;;;;;;;;;;5045520;28;20061;-55
2024/03/19 13:45:46;;;;;;;4.72;2.20;;;;;;;;;;5052475;28;20056;-54
2024/03/19 13:48:15;;;;;;;4.07;2.10;;;;;;;;;;5049546;28;20053;-54
2024/03/19 13:50:43;;;;;;;3.85;2.08;;;;;;;;;;5045670;28;20083;-57
2024/03/19 13:53:10;;;;;;;3.75;1.80;;;;;;;;;;5053767;28;20047;-55
2024/03/19 13:55:40;;;;;;;3.20;1.50;;;;;;;;;;5053223;28;20716;-52
2024/03/19 13:58:08;;;;;;;4.47;1.65;;;;;;;;;;5053395;28;20583;-55
2024/03/19 14:00:35;;;;;;;2.95;1.52;;;;;;;;;;5045766;28;20045;-50
2024/03/19 14:03:02;;;;;;;3.22;1.70;;;;;;;;;;5051987;28;20051;-53
2024/03/19 14:05:32;;;;;;;4.35;1.75;;;;;;;;;;5052740;28;20049;-53
2024/03/19 14:08:00;;;;;;;3.67;1.60;;;;;;;;;;5056417;28;20040;-55
2024/03/19 14:10:27;;;;;;;3.10;1.67;;;;;;;;;;5045774;28;20052;-53
2024/03/19 14:12:56;;;;;;;3.28;1.70;;;;;;;;;;5037689;28;20419;-57
2024/03/19 14:15:25;;;;;;;4.25;1.70;;;;;;;;;;5051766;28;20099;-57
2024/03/19 14:17:52;;;;;;;3.38;1.60;;;;;;;;;;5066310;28;20114;-53
2024/03/19 14:20:19;;;;;;;3.53;1.90;;;;;;;;;;5066322;28;20113;-57
2024/03/19 14:22:46;;;;;;;10.10;3.58;;;;;;;;;;5065014;28;20048;-51
2024/03/19 14:25:14;;;;;;;3.90;2.15;;;;;;;;;;5067130;28;20415;-54
2024/03/19 14:27:41;;;;;;;4.13;2.30;;;;;;;;;;5062584;28;20065;-56
2024/03/19 14:30:10;;;;;;;4.97;2.10;;;;;;;;;;5066835;28;20044;-50
2024/03/19 14:32:38;;;;;;;5.15;1.98;;;;;;;;;;5064168;28;20463;-56
2024/03/19 14:35:06;;;;;;;3.97;2.30;;;;;;;;;;5057330;28;20049;-53